Time;durP1;ratioP1;P1;durP2;ratioP2;P2;SDS_P1;SDS_P2;PMS_P1;PMS_P2;Temp;Humidity;BMP_temperature;BMP_pressure;BME280_temperature;BME280_humidity;BME280_pressure;Samples;Min_cycle;Max_cycle;Signal;HPM_P1;HPM_P2
2023/03/15 00:01:47;;;;;;;5.72;3.45;;;;;;;;;;6041182;23;20352;-78
2023/03/15 00:04:14;;;;;;;4.50;3.38;;;;;;;;;;6065164;23;20027;-77
2023/03/15 00:06:41;;;;;;;6.68;3.47;;;;;;;;;;6064687;23;20113;-77
2023/03/15 00:09:07;;;;;;;5.55;3.60;;;;;;;;;;6065885;23;20023;-77
2023/03/15 00:11:34;;;;;;;5.68;3.60;;;;;;;;;;6088600;23;20027;-77
2023/03/15 00:14:01;;;;;;;7.90;4.30;;;;;;;;;;6041707;23;20370;-77
2023/03/15 00:16:28;;;;;;;4.88;3.70;;;;;;;;;;6041356;23;20023;-78
2023/03/15 00:18:55;;;;;;;5.72;3.42;;;;;;;;;;6041485;23;20050;-77
2023/03/15 00:21:22;;;;;;;7.20;4.68;;;;;;;;;;6064686;23;20019;-77
2023/03/15 00:23:49;;;;;;;8.45;5.30;;;;;;;;;;6065523;23;20033;-76
2023/03/15 00:26:16;;;;;;;10.40;6.57;;;;;;;;;;6041120;23;20023;-76
2023/03/15 00:28:43;;;;;;;9.07;6.60;;;;;;;;;;6064968;23;20029;-77
2023/03/15 00:31:15;;;;;;;10.20;7.72;;;;;;;;;;6064569;23;20023;-77
2023/03/15 00:33:42;;;;;;;;;;;;;;;;;;6068946;23;20501;-77
2023/03/15 00:36:10;;;;;;;11.05;7.03;;;;;;;;;;6020882;23;19917;-77
2023/03/15 00:38:38;;;;;;;9.75;6.90;;;;;;;;;;6068849;23;20027;-78
2023/03/15 00:41:07;;;;;;;11.10;7.38;;;;;;;;;;6068296;23;20022;-79
2023/03/15 00:43:34;;;;;;;10.90;7.22;;;;;;;;;;6067701;23;20033;-78
2023/03/15 00:46:01;;;;;;;12.93;7.47;;;;;;;;;;6068229;23;20034;-79
2023/03/15 00:48:28;;;;;;;11.07;6.65;;;;;;;;;;6068235;23;20034;-79
2023/03/15 00:51:02;;;;;;;9.85;6.97;;;;;;;;;;6068131;23;20545;-78
2023/03/15 00:53:29;;;;;;;9.18;7.22;;;;;;;;;;6091652;23;20029;-79
2023/03/15 00:55:56;;;;;;;11.93;7.50;;;;;;;;;;6067951;23;20027;-77
2023/03/15 00:58:23;;;;;;;11.18;8.07;;;;;;;;;;6068251;23;20082;-79
2023/03/15 01:00:52;;;;;;;12.52;7.53;;;;;;;;;;6067615;23;20022;-79
2023/03/15 01:03:19;;;;;;;12.40;7.28;;;;;;;;;;6068044;23;20030;-79
2023/03/15 01:05:46;;;;;;;10.80;6.95;;;;;;;;;;6068160;23;20398;-79
2023/03/15 01:08:13;;;;;;;14.32;7.60;;;;;;;;;;6044749;23;20058;-80
2023/03/15 01:10:39;;;;;;;15.70;7.65;;;;;;;;;;6068590;23;20034;-80
2023/03/15 01:13:06;;;;;;;14.40;7.35;;;;;;;;;;6069311;23;20035;-79
2023/03/15 01:15:33;;;;;;;14.20;8.32;;;;;;;;;;6044983;23;20039;-80
2023/03/15 01:18:00;;;;;;;12.27;6.82;;;;;;;;;;6068222;23;20026;-80
2023/03/15 01:20:26;;;;;;;13.50;7.03;;;;;;;;;;6043303;23;20030;-79
2023/03/15 01:22:54;;;;;;;17.50;8.43;;;;;;;;;;6067434;23;20023;-79
2023/03/15 01:25:21;;;;;;;16.25;7.75;;;;;;;;;;6067393;23;20110;-79
2023/03/15 01:27:48;;;;;;;13.68;6.95;;;;;;;;;;6043802;23;20023;-79
2023/03/15 01:30:14;;;;;;;12.55;7.03;;;;;;;;;;6067239;23;20038;-78
2023/03/15 01:32:41;;;;;;;17.27;7.40;;;;;;;;;;6066652;23;20037;-78
2023/03/15 01:35:08;;;;;;;16.23;6.70;;;;;;;;;;6090534;23;20027;-79
2023/03/15 01:37:35;;;;;;;12.80;6.40;;;;;;;;;;6067317;23;20361;-78
2023/03/15 01:40:05;;;;;;;11.10;5.97;;;;;;;;;;6043006;23;20030;-80
2023/03/15 01:42:31;;;;;;;10.80;5.55;;;;;;;;;;6068389;23;20410;-79
2023/03/15 01:44:58;;;;;;;11.73;5.78;;;;;;;;;;6067268;23;20034;-79
2023/03/15 01:47:25;;;;;;;12.10;4.85;;;;;;;;;;6067554;23;20050;-78
2023/03/15 01:50:12;;;;;;;10.65;5.18;;;;;;;;;;6066238;23;20030;-79
2023/03/15 01:52:39;;;;;;;13.13;5.78;;;;;;;;;;6019936;23;20022;-78
2023/03/15 01:55:11;;;;;;;11.13;5.53;;;;;;;;;;6065754;23;20027;-77
2023/03/15 01:57:49;;;;;;;11.75;4.72;;;;;;;;;;6064132;23;20026;-78
2023/03/15 02:00:18;;;;;;;9.70;5.60;;;;;;;;;;6063921;23;20049;-77
2023/03/15 02:02:48;;;;;;;10.48;4.35;;;;;;;;;;6062877;23;20029;-77
2023/03/15 02:05:25;;;;;;;11.50;4.55;;;;;;;;;;6062855;23;20042;-79
2023/03/15 02:07:53;;;;;;;7.35;4.15;;;;;;;;;;6062482;23;20469;-77
2023/03/15 02:10:28;;;;;;;9.85;3.92;;;;;;;;;;6062172;23;20025;-77
2023/03/15 02:12:54;;;;;;;9.57;3.85;;;;;;;;;;6086432;23;20042;-76
2023/03/15 02:15:21;;;;;;;9.20;3.53;;;;;;;;;;6062750;23;20030;-74
2023/03/15 02:17:48;;;;;;;8.45;3.95;;;;;;;;;;6062571;23;20025;-76
2023/03/15 02:20:26;;;;;;;7.03;3.67;;;;;;;;;;6062381;23;20029;-77
2023/03/15 02:22:58;;;;;;;9.02;3.20;;;;;;;;;;6086613;23;20023;-76
2023/03/15 02:25:34;;;;;;;8.82;3.08;;;;;;;;;;6062229;23;20106;-76
2023/03/15 02:28:02;;;;;;;5.65;3.03;;;;;;;;;;6086166;23;20023;-75
2023/03/15 02:30:29;;;;;;;4.10;3.08;;;;;;;;;;6062235;23;20030;-76
2023/03/15 02:32:57;;;;;;;6.40;2.78;;;;;;;;;;6063000;23;20026;-75
2023/03/15 02:35:28;;;;;;;7.10;2.92;;;;;;;;;;6063084;23;20074;-75
2023/03/15 02:37:55;;;;;;;7.88;3.40;;;;;;;;;;6062566;23;20725;-75
2023/03/15 02:40:23;;;;;;;8.38;2.78;;;;;;;;;;6062686;23;20034;-75
2023/03/15 02:42:52;;;;;;;7.45;2.60;;;;;;;;;;6062483;23;20462;-76
2023/03/15 02:45:19;;;;;;;4.97;2.70;;;;;;;;;;6062924;23;20023;-77
2023/03/15 02:47:46;;;;;;;7.07;2.78;;;;;;;;;;6063658;23;20221;-77
2023/03/15 02:50:13;;;;;;;6.25;3.38;;;;;;;;;;6066090;23;20048;-77
2023/03/15 02:52:39;;;;;;;9.05;2.80;;;;;;;;;;6063224;23;20027;-77
2023/03/15 02:55:07;;;;;;;5.05;2.70;;;;;;;;;;6086454;23;20027;-76
2023/03/15 02:57:33;;;;;;;7.05;2.63;;;;;;;;;;6038718;23;20029;-76
2023/03/15 03:00:06;;;;;;;6.60;2.67;;;;;;;;;;6062552;23;20106;-77
2023/03/15 03:02:32;;;;;;;11.38;3.15;;;;;;;;;;6063025;23;20054;-75
2023/03/15 03:04:59;;;;;;;7.18;3.25;;;;;;;;;;6062696;23;20019;-77
2023/03/15 03:07:26;;;;;;;5.07;2.30;;;;;;;;;;6064067;23;20023;-76
2023/03/15 03:09:53;;;;;;;6.22;2.63;;;;;;;;;;6063713;23;20019;-76
2023/03/15 03:12:19;;;;;;;8.57;2.40;;;;;;;;;;6063669;23;20404;-77
2023/03/15 03:14:46;;;;;;;5.25;2.00;;;;;;;;;;6062675;23;20038;-77
2023/03/15 03:17:13;;;;;;;4.38;2.00;;;;;;;;;;6062915;23;20473;-76
2023/03/15 03:19:40;;;;;;;4.10;1.63;;;;;;;;;;6062586;23;20023;-76
2023/03/15 03:22:07;;;;;;;8.20;3.15;;;;;;;;;;6063190;23;20399;-76
2023/03/15 03:24:33;;;;;;;5.30;1.85;;;;;;;;;;6064628;23;20034;-77
2023/03/15 03:27:00;;;;;;;10.35;2.13;;;;;;;;;;6064493;23;20065;-77
2023/03/15 03:29:27;;;;;;;5.53;1.77;;;;;;;;;;6064439;23;20022;-76
2023/03/15 03:31:54;;;;;;;6.20;2.30;;;;;;;;;;6064480;23;20031;-76
2023/03/15 03:34:20;;;;;;;6.13;1.60;;;;;;;;;;6064392;23;20034;-77
2023/03/15 03:36:47;;;;;;;7.95;2.05;;;;;;;;;;6064730;23;20030;-75
2023/03/15 03:39:14;;;;;;;4.22;1.52;;;;;;;;;;6064474;23;20401;-76
2023/03/15 03:41:41;;;;;;;3.95;1.70;;;;;;;;;;6064144;23;20033;-76
2023/03/15 03:44:07;;;;;;;6.60;1.88;;;;;;;;;;6064054;23;20019;-76
2023/03/15 03:46:35;;;;;;;7.53;2.10;;;;;;;;;;6064565;23;20038;-77
2023/03/15 03:49:01;;;;;;;5.90;1.90;;;;;;;;;;6041031;23;20023;-76
2023/03/15 03:51:28;;;;;;;4.30;2.13;;;;;;;;;;6087768;23;20370;-77
2023/03/15 03:53:55;;;;;;;3.40;1.58;;;;;;;;;;6065458;23;20449;-77
2023/03/15 03:56:21;;;;;;;4.65;1.70;;;;;;;;;;6064858;23;20033;-75
2023/03/15 03:58:48;;;;;;;7.03;2.15;;;;;;;;;;6040696;23;20079;-77
2023/03/15 04:01:15;;;;;;;6.18;1.63;;;;;;;;;;6063421;23;20109;-76
2023/03/15 04:03:42;;;;;;;8.30;1.67;;;;;;;;;;6040068;23;20489;-77
2023/03/15 04:06:09;;;;;;;8.25;2.13;;;;;;;;;;6087780;23;20023;-77
2023/03/15 04:08:35;;;;;;;6.93;2.03;;;;;;;;;;6063872;23;20075;-78
2023/03/15 04:11:02;;;;;;;6.82;1.67;;;;;;;;;;6063652;23;20038;-77
2023/03/15 04:13:30;;;;;;;5.95;2.40;;;;;;;;;;6063892;23;20500;-77
2023/03/15 04:15:56;;;;;;;10.57;2.60;;;;;;;;;;6064035;23;20027;-77
2023/03/15 04:18:23;;;;;;;7.20;2.13;;;;;;;;;;6063912;23;20019;-77
2023/03/15 04:20:53;;;;;;;8.65;2.30;;;;;;;;;;6063431;23;20023;-76
2023/03/15 04:23:21;;;;;;;7.63;1.98;;;;;;;;;;6064147;23;20043;-76
2023/03/15 04:25:49;;;;;;;7.70;2.42;;;;;;;;;;6064140;23;20023;-76
2023/03/15 04:28:17;;;;;;;6.50;2.00;;;;;;;;;;6064237;23;20742;-79
2023/03/15 04:30:44;;;;;;;7.90;2.75;;;;;;;;;;6063369;23;20018;-77
2023/03/15 04:33:11;;;;;;;7.07;2.58;;;;;;;;;;6039762;23;20023;-77
2023/03/15 04:35:38;;;;;;;11.85;3.30;;;;;;;;;;6064005;23;20074;-77
2023/03/15 04:38:05;;;;;;;6.78;2.85;;;;;;;;;;6063303;23;20019;-77
2023/03/15 04:40:33;;;;;;;10.07;2.65;;;;;;;;;;6063306;23;20026;-75
2023/03/15 04:43:02;;;;;;;4.93;2.53;;;;;;;;;;6063849;23;20023;-76
2023/03/15 04:45:33;;;;;;;9.90;2.78;;;;;;;;;;6039214;23;20019;-76
2023/03/15 04:48:00;;;;;;;11.48;2.63;;;;;;;;;;6063816;23;20019;-77
2023/03/15 04:50:28;;;;;;;7.40;2.47;;;;;;;;;;6063260;23;20086;-75
2023/03/15 04:52:56;;;;;;;7.28;3.10;;;;;;;;;;6087185;23;20023;-76
2023/03/15 04:55:23;;;;;;;9.13;3.75;;;;;;;;;;6063637;23;20038;-77
2023/03/15 04:57:49;;;;;;;17.73;5.05;;;;;;;;;;6039243;23;20019;-77
2023/03/15 05:00:16;;;;;;;9.52;4.55;;;;;;;;;;6062941;23;20023;-75
2023/03/15 05:02:43;;;;;;;9.52;5.60;;;;;;;;;;6063879;23;20027;-76
2023/03/15 05:05:11;;;;;;;7.32;2.90;;;;;;;;;;6063549;23;20496;-77
2023/03/15 05:07:37;;;;;;;7.13;3.67;;;;;;;;;;6062992;23;20015;-76
2023/03/15 05:10:05;;;;;;;9.80;4.30;;;;;;;;;;6062470;23;20023;-76
2023/03/15 05:12:35;;;;;;;7.07;3.83;;;;;;;;;;6063019;23;20054;-77
2023/03/15 05:15:01;;;;;;;11.73;3.70;;;;;;;;;;6064225;23;20023;-77
2023/03/15 05:17:28;;;;;;;8.95;3.20;;;;;;;;;;6063231;23;20023;-76
2023/03/15 05:19:55;;;;;;;11.85;4.32;;;;;;;;;;6062760;23;20561;-77
2023/03/15 05:22:24;;;;;;;13.85;6.43;;;;;;;;;;6063258;23;20026;-77
2023/03/15 05:24:52;;;;;;;13.93;4.80;;;;;;;;;;6063742;23;20031;-76
2023/03/15 05:27:19;;;;;;;10.45;4.32;;;;;;;;;;6062977;23;20023;-77
2023/03/15 05:29:46;;;;;;;11.90;4.53;;;;;;;;;;6062989;23;20110;-75
2023/03/15 05:32:13;;;;;;;10.40;4.85;;;;;;;;;;6063227;23;20049;-77
2023/03/15 05:34:41;;;;;;;9.70;3.88;;;;;;;;;;6063261;23;20023;-77
2023/03/15 05:37:08;;;;;;;5.70;2.85;;;;;;;;;;6063579;23;20039;-76
2023/03/15 05:39:35;;;;;;;11.05;3.55;;;;;;;;;;6040579;23;20023;-75
2023/03/15 05:42:02;;;;;;;9.45;4.65;;;;;;;;;;6065375;23;20102;-76
2023/03/15 05:44:28;;;;;;;11.73;3.85;;;;;;;;;;6064892;23;20102;-77
2023/03/15 05:46:55;;;;;;;9.88;3.42;;;;;;;;;;6063733;23;20029;-77
2023/03/15 05:49:22;;;;;;;10.13;4.38;;;;;;;;;;6062731;23;20093;-77
2023/03/15 05:51:48;;;;;;;10.55;4.03;;;;;;;;;;6062437;23;20022;-76
2023/03/15 05:54:15;;;;;;;9.55;4.00;;;;;;;;;;6062775;23;20027;-77
2023/03/15 05:56:42;;;;;;;14.70;4.85;;;;;;;;;;6062776;23;20027;-77
2023/03/15 05:59:08;;;;;;;10.68;4.90;;;;;;;;;;6062962;23;20014;-76
2023/03/15 06:01:35;;;;;;;12.93;5.10;;;;;;;;;;6062912;23;20029;-76
2023/03/15 06:04:02;;;;;;;14.07;4.97;;;;;;;;;;6038943;23;20102;-76
2023/03/15 06:06:29;;;;;;;8.30;3.60;;;;;;;;;;6039261;23;20066;-77
2023/03/15 06:08:59;;;;;;;9.13;3.90;;;;;;;;;;6086344;23;20025;-77
2023/03/15 06:11:26;;;;;;;7.75;3.53;;;;;;;;;;6040034;23;20090;-78
2023/03/15 06:13:53;;;;;;;9.05;3.72;;;;;;;;;;6041397;23;20029;-78
2023/03/15 06:16:20;;;;;;;11.88;3.53;;;;;;;;;;6042427;23;20027;-79
2023/03/15 06:18:47;;;;;;;7.60;3.85;;;;;;;;;;6065839;23;20058;-78
2023/03/15 06:21:13;;;;;;;7.18;2.92;;;;;;;;;;6070778;23;20202;-79
2023/03/15 06:23:40;;;;;;;6.47;3.10;;;;;;;;;;6091466;23;20527;-78
2023/03/15 06:26:07;;;;;;;10.25;2.90;;;;;;;;;;6091455;23;20665;-79
2023/03/15 06:28:34;;;;;;;10.07;3.50;;;;;;;;;;6067657;23;20023;-79
2023/03/15 06:31:07;;;;;;;8.95;3.05;;;;;;;;;;6067114;23;20023;-78
2023/03/15 06:33:34;;;;;;;8.48;3.03;;;;;;;;;;6065479;23;20469;-78
2023/03/15 06:36:01;;;;;;;11.40;4.03;;;;;;;;;;6065185;23;20709;-79
2023/03/15 06:38:30;;;;;;;11.15;3.63;;;;;;;;;;6067187;23;20466;-78
2023/03/15 06:40:59;;;;;;;6.75;4.10;;;;;;;;;;6066584;23;20504;-77
2023/03/15 06:43:26;;;;;;;8.02;3.33;;;;;;;;;;6063448;23;20635;-76
2023/03/15 06:45:54;;;;;;;10.93;3.45;;;;;;;;;;6063919;23;20023;-78
2023/03/15 06:48:21;;;;;;;13.27;4.22;;;;;;;;;;6063482;23;20027;-80
2023/03/15 06:50:48;;;;;;;10.60;4.00;;;;;;;;;;6064256;23;20031;-80
2023/03/15 06:53:15;;;;;;;8.73;3.55;;;;;;;;;;6063588;23;20027;-81
2023/03/15 06:55:42;;;;;;;10.15;3.55;;;;;;;;;;6063224;23;20390;-77
2023/03/15 06:58:09;;;;;;;5.05;2.78;;;;;;;;;;6065261;23;20023;-79
2023/03/15 07:00:37;;;;;;;8.73;3.75;;;;;;;;;;6064806;23;20026;-80
2023/03/15 07:03:03;;;;;;;8.10;3.08;;;;;;;;;;6065980;23;20249;-79
2023/03/15 07:05:30;;;;;;;6.38;3.40;;;;;;;;;;6065219;23;20027;-80
2023/03/15 07:07:57;;;;;;;14.45;5.03;;;;;;;;;;6065236;23;20022;-79
2023/03/15 07:10:24;;;;;;;10.20;3.13;;;;;;;;;;6064284;23;20031;-78
2023/03/15 07:12:51;;;;;;;11.80;4.20;;;;;;;;;;6064607;23;20030;-80
2023/03/15 07:15:17;;;;;;;9.52;3.10;;;;;;;;;;6066065;23;20118;-80
2023/03/15 07:17:44;;;;;;;9.90;3.58;;;;;;;;;;6082231;23;20045;-81
2023/03/15 07:20:11;;;;;;;9.25;4.05;;;;;;;;;;6079190;23;20034;-81
2023/03/15 07:22:38;;;;;;;10.75;4.85;;;;;;;;;;6071426;23;20030;-81
2023/03/15 07:25:06;;;;;;;8.68;3.05;;;;;;;;;;6069407;23;20040;-82
2023/03/15 07:27:33;;;;;;;6.55;2.10;;;;;;;;;;6069079;23;20027;-82
2023/03/15 07:30:00;;;;;;;9.68;2.38;;;;;;;;;;6068111;23;20019;-82
2023/03/15 07:32:26;;;;;;;9.00;1.83;;;;;;;;;;6068996;23;20027;-80
2023/03/15 07:34:57;;;;;;;10.93;2.63;;;;;;;;;;6065580;23;20033;-80
2023/03/15 07:37:23;;;;;;;8.60;2.38;;;;;;;;;;6087181;23;20082;-79
2023/03/15 07:39:50;;;;;;;12.63;2.97;;;;;;;;;;6063648;23;20362;-79
2023/03/15 07:42:17;;;;;;;11.65;2.40;;;;;;;;;;6064453;23;20027;-79
2023/03/15 07:44:44;;;;;;;6.57;2.03;;;;;;;;;;6064251;23;20023;-80
2023/03/15 07:47:10;;;;;;;9.38;2.92;;;;;;;;;;6088337;23;20033;-79
2023/03/15 07:49:37;;;;;;;7.13;2.17;;;;;;;;;;6063370;23;20101;-82
2023/03/15 07:52:04;;;;;;;6.10;2.00;;;;;;;;;;6062788;23;20760;-80
2023/03/15 07:54:33;;;;;;;6.18;1.67;;;;;;;;;;6064468;23;20022;-80
2023/03/15 07:56:59;;;;;;;10.13;1.75;;;;;;;;;;6063521;23;20083;-80
2023/03/15 07:59:26;;;;;;;8.57;2.30;;;;;;;;;;6039934;23;20045;-80
2023/03/15 08:01:53;;;;;;;4.63;1.67;;;;;;;;;;6039902;23;20078;-80
2023/03/15 08:04:20;;;;;;;5.43;2.05;;;;;;;;;;6063527;23;20054;-80
2023/03/15 08:06:47;;;;;;;9.65;2.00;;;;;;;;;;6063375;23;20037;-80
2023/03/15 08:09:13;;;;;;;5.43;1.42;;;;;;;;;;6039210;23;20524;-80
2023/03/15 08:11:40;;;;;;;5.88;1.33;;;;;;;;;;6063408;23;20030;-79
2023/03/15 08:14:10;;;;;;;7.07;1.35;;;;;;;;;;6063850;23;20099;-79
2023/03/15 08:16:36;;;;;;;9.00;1.60;;;;;;;;;;6063570;23;20030;-76
2023/03/15 08:19:03;;;;;;;4.43;1.60;;;;;;;;;;6063220;23;20026;-82
2023/03/15 08:21:32;;;;;;;4.57;1.27;;;;;;;;;;6063792;23;20102;-87
2023/03/15 08:24:00;;;;;;;8.07;2.08;;;;;;;;;;6062546;23;20039;-78
2023/03/15 08:26:26;;;;;;;5.53;1.45;;;;;;;;;;6086917;23;20109;-76
2023/03/15 08:28:53;;;;;;;7.38;2.22;;;;;;;;;;6062779;23;20019;-78
2023/03/15 08:31:20;;;;;;;4.57;1.50;;;;;;;;;;6086284;23;20023;-76
2023/03/15 08:33:47;;;;;;;9.18;2.33;;;;;;;;;;6062388;23;20033;-77
2023/03/15 08:36:13;;;;;;;4.05;1.75;;;;;;;;;;6062445;23;20044;-77
2023/03/15 08:38:41;;;;;;;6.10;1.45;;;;;;;;;;6061805;23;20041;-76
2023/03/15 08:41:07;;;;;;;6.90;1.75;;;;;;;;;;6038315;23;20323;-76
2023/03/15 08:43:34;;;;;;;6.05;1.55;;;;;;;;;;6061714;23;20473;-75
2023/03/15 08:46:01;;;;;;;6.53;1.23;;;;;;;;;;6074753;23;20026;-80
2023/03/15 08:48:28;;;;;;;4.15;1.15;;;;;;;;;;6074759;23;20046;-77
2023/03/15 08:50:56;;;;;;;4.15;1.40;;;;;;;;;;6070728;23;20093;-76
2023/03/15 08:53:23;;;;;;;5.70;1.77;;;;;;;;;;6077196;23;20027;-80
2023/03/15 08:55:50;;;;;;;5.78;1.52;;;;;;;;;;6048316;23;20053;-79
2023/03/15 08:58:17;;;;;;;5.25;1.45;;;;;;;;;;6061241;23;20027;-79
2023/03/15 09:00:43;;;;;;;3.38;1.42;;;;;;;;;;6084985;23;20434;-77
2023/03/15 09:03:10;;;;;;;4.30;1.23;;;;;;;;;;6037237;23;20027;-76
2023/03/15 09:05:37;;;;;;;4.85;1.65;;;;;;;;;;6061269;23;20023;-78
2023/03/15 09:08:04;;;;;;;4.25;1.52;;;;;;;;;;6060331;23;20106;-74
2023/03/15 09:10:33;;;;;;;3.55;1.58;;;;;;;;;;6060557;23;20023;-75
2023/03/15 09:13:00;;;;;;;6.75;1.50;;;;;;;;;;6060641;23;20027;-75
2023/03/15 09:15:27;;;;;;;4.55;1.73;;;;;;;;;;6061184;23;20357;-76
2023/03/15 09:17:53;;;;;;;6.18;1.20;;;;;;;;;;6060819;23;20027;-75
2023/03/15 09:20:22;;;;;;;4.40;1.77;;;;;;;;;;6069539;23;20098;-75
2023/03/15 09:22:51;;;;;;;4.97;2.25;;;;;;;;;;6071844;23;20097;-77
2023/03/15 09:25:19;;;;;;;5.75;1.52;;;;;;;;;;6069123;23;20098;-82
2023/03/15 09:27:45;;;;;;;4.40;1.08;;;;;;;;;;6069136;23;20034;-82
2023/03/15 09:30:13;;;;;;;4.57;1.67;;;;;;;;;;6045628;23;20110;-83
2023/03/15 09:32:39;;;;;;;2.60;0.93;;;;;;;;;;6069531;23;20037;-82
2023/03/15 09:35:10;;;;;;;4.43;1.67;;;;;;;;;;6059204;23;20027;-78
2023/03/15 09:37:37;;;;;;;8.18;1.30;;;;;;;;;;6063759;23;20030;-76
2023/03/15 09:40:06;;;;;;;7.13;1.73;;;;;;;;;;6038463;23;20027;-76
2023/03/15 09:42:57;;;;;;;5.20;1.42;;;;;;;;;;6061520;23;20033;-77
2023/03/15 09:45:43;;;;;;;6.25;1.55;;;;;;;;;;6093157;23;20023;-77
2023/03/15 09:48:20;;;;;;;6.70;1.63;;;;;;;;;;6093029;23;20024;-78
2023/03/15 09:51:17;;;;;;;4.82;1.20;;;;;;;;;;6086917;23;20092;-77
2023/03/15 09:53:50;;;;;;;4.55;1.65;;;;;;;;;;6069903;23;20489;-76
2023/03/15 09:56:27;;;;;;;5.73;1.40;;;;;;;;;;6086330;23;20046;-77
2023/03/15 09:58:57;;;;;;;2.05;1.00;;;;;;;;;;6062168;23;20901;-77
2023/03/15 10:01:31;;;;;;;5.75;1.20;;;;;;;;;;6062248;23;20493;-77
2023/03/15 10:04:02;;;;;;;4.05;1.50;;;;;;;;;;6062494;23;20074;-77
2023/03/15 10:06:33;;;;;;;6.10;1.33;;;;;;;;;;6062327;23;20070;-76
2023/03/15 10:09:09;;;;;;;4.90;1.17;;;;;;;;;;6062890;23;20033;-77
2023/03/15 10:11:57;;;;;;;4.50;1.13;;;;;;;;;;6061384;23;20141;-76
2023/03/15 10:14:27;;;;;;;3.22;0.90;;;;;;;;;;6082982;23;20049;-76
2023/03/15 10:16:53;;;;;;;6.90;0.82;;;;;;;;;;6086406;23;20054;-77
2023/03/15 10:19:44;;;;;;;4.57;1.05;;;;;;;;;;6086735;23;20018;-78
2023/03/15 10:22:34;;;;;;;3.60;0.95;;;;;;;;;;6087380;23;20026;-77
2023/03/15 10:25:13;;;;;;;3.60;1.10;;;;;;;;;;6063539;23;20019;-78
2023/03/15 10:27:53;;;;;;;3.17;0.70;;;;;;;;;;6087756;23;20477;-79
2023/03/15 10:30:26;;;;;;;5.22;1.08;;;;;;;;;;6062556;23;20019;-77
2023/03/15 10:33:17;;;;;;;4.88;1.38;;;;;;;;;;6063026;23;20059;-78
2023/03/15 10:35:44;;;;;;;5.18;1.20;;;;;;;;;;6066274;23;20019;-78
2023/03/15 10:38:19;;;;;;;2.63;1.20;;;;;;;;;;6067050;23;20039;-79
2023/03/15 10:40:57;;;;;;;5.15;1.98;;;;;;;;;;6064999;23;20137;-77
2023/03/15 10:43:25;;;;;;;3.75;1.10;;;;;;;;;;6065058;23;20385;-78
2023/03/15 10:46:00;;;;;;;6.53;1.90;;;;;;;;;;6090272;23;20049;-77
2023/03/15 10:48:29;;;;;;;4.72;1.50;;;;;;;;;;6089151;23;20037;-78
2023/03/15 10:50:56;;;;;;;4.65;1.70;;;;;;;;;;6063665;23;20378;-78
2023/03/15 10:53:24;;;;;;;5.45;2.22;;;;;;;;;;6066608;23;20027;-78
2023/03/15 10:56:05;;;;;;;6.57;1.10;;;;;;;;;;6066050;23;20548;-78
2023/03/15 10:58:47;;;;;;;3.50;0.82;;;;;;;;;;6064668;23;20077;-77
2023/03/15 11:01:34;;;;;;;3.42;1.27;;;;;;;;;;6064840;23;20073;-78
2023/03/15 11:04:01;;;;;;;5.35;1.52;;;;;;;;;;6040948;23;20051;-78
2023/03/15 11:06:28;;;;;;;6.35;2.60;;;;;;;;;;6090349;23;20029;-78
2023/03/15 11:09:10;;;;;;;5.32;0.98;;;;;;;;;;6090533;23;20060;-78
2023/03/15 11:11:57;;;;;;;4.72;1.00;;;;;;;;;;6042222;23;20027;-78
2023/03/15 11:14:25;;;;;;;5.35;1.00;;;;;;;;;;6089244;23;20029;-77
2023/03/15 11:16:55;;;;;;;6.50;1.70;;;;;;;;;;6065165;23;20110;-77
2023/03/15 11:19:26;;;;;;;4.05;1.00;;;;;;;;;;6066045;23;20107;-78
2023/03/15 11:21:54;;;;;;;4.32;1.33;;;;;;;;;;6069814;23;20041;-78
2023/03/15 11:24:28;;;;;;;4.43;1.10;;;;;;;;;;6071409;23;20023;-77
2023/03/15 11:27:00;;;;;;;3.20;1.30;;;;;;;;;;6074776;23;20058;-77
2023/03/15 11:29:31;;;;;;;5.90;1.00;;;;;;;;;;6073113;23;20023;-77
2023/03/15 11:31:59;;;;;;;5.47;1.25;;;;;;;;;;6099460;23;20357;-77
2023/03/15 11:34:41;;;;;;;2.63;0.70;;;;;;;;;;6077673;23;20033;-76
2023/03/15 11:37:30;;;;;;;2.60;1.00;;;;;;;;;;6101131;23;20034;-83
2023/03/15 11:39:58;;;;;;;2.78;0.85;;;;;;;;;;6083669;23;20086;-84
2023/03/15 11:43:04;;;;;;;1.95;1.20;;;;;;;;;;6092738;23;20130;-83
2023/03/15 11:45:37;;;;;;;5.88;0.80;;;;;;;;;;6062727;23;20145;-81
2023/03/15 11:48:15;;;;;;;5.70;0.95;;;;;;;;;;6089808;23;20023;-82
2023/03/15 11:50:42;;;;;;;1.13;0.57;;;;;;;;;;6060971;23;20018;-81
2023/03/15 11:53:13;;;;;;;2.33;0.75;;;;;;;;;;6061778;23;20022;-81
2023/03/15 11:55:40;;;;;;;2.42;0.85;;;;;;;;;;6072013;23;20026;-80
2023/03/15 11:58:27;;;;;;;3.20;1.40;;;;;;;;;;6072433;23;20031;-85
2023/03/15 12:01:04;;;;;;;3.28;0.68;;;;;;;;;;6065548;23;20030;-82
2023/03/15 12:03:39;;;;;;;2.47;0.75;;;;;;;;;;6063178;23;20053;-83
2023/03/15 12:06:08;;;;;;;3.25;0.88;;;;;;;;;;6095322;23;20100;-82
2023/03/15 12:08:41;;;;;;;4.93;1.17;;;;;;;;;;6089637;23;20160;-82
2023/03/15 12:11:20;;;;;;;1.75;0.80;;;;;;;;;;6064002;23;20023;-81
2023/03/15 12:13:56;;;;;;;1.90;1.17;;;;;;;;;;6088320;23;20086;-79
2023/03/15 12:16:28;;;;;;;1.75;1.00;;;;;;;;;;6089062;23;20045;-78
2023/03/15 12:19:00;;;;;;;3.90;0.98;;;;;;;;;;6064910;23;20023;-79
2023/03/15 12:21:32;;;;;;;2.85;0.85;;;;;;;;;;6063790;23;20031;-79
2023/03/15 12:24:05;;;;;;;3.88;1.00;;;;;;;;;;6063553;23;20023;-80
2023/03/15 12:26:40;;;;;;;1.98;1.20;;;;;;;;;;6063725;23;20121;-81
2023/03/15 12:29:11;;;;;;;3.33;1.20;;;;;;;;;;6087941;23;20457;-81
2023/03/15 12:31:48;;;;;;;4.35;1.10;;;;;;;;;;6087941;23;20022;-80
2023/03/15 12:34:25;;;;;;;3.60;0.98;;;;;;;;;;6087813;23;20070;-79
2023/03/15 12:36:54;;;;;;;5.30;1.10;;;;;;;;;;6063891;23;20342;-80
2023/03/15 12:39:37;;;;;;;3.13;1.00;;;;;;;;;;6063870;23;20466;-80
2023/03/15 12:42:04;;;;;;;1.90;1.25;;;;;;;;;;6087969;23;20102;-81
2023/03/15 12:44:32;;;;;;;2.88;1.23;;;;;;;;;;6064752;23;20102;-81
2023/03/15 12:47:00;;;;;;;5.10;1.50;;;;;;;;;;6089295;23;20078;-82
2023/03/15 12:49:30;;;;;;;2.97;1.27;;;;;;;;;;6063992;23;20026;-81
2023/03/15 12:52:10;;;;;;;3.95;1.95;;;;;;;;;;6064103;23;20292;-81
2023/03/15 12:54:53;;;;;;;2.08;1.33;;;;;;;;;;6086801;23;20038;-81
2023/03/15 12:57:26;;;;;;;4.85;1.42;;;;;;;;;;6039267;23;20022;-80
2023/03/15 13:00:00;;;;;;;2.47;1.38;;;;;;;;;;6064386;23;20461;-80
2023/03/15 13:02:32;;;;;;;5.72;1.70;;;;;;;;;;6066861;23;20419;-81
2023/03/15 13:05:08;;;;;;;3.25;1.65;;;;;;;;;;6066583;23;20078;-80
2023/03/15 13:07:43;;;;;;;5.75;1.90;;;;;;;;;;6067268;23;20025;-80
2023/03/15 13:10:36;;;;;;;5.38;2.55;;;;;;;;;;6088351;23;20027;-80
2023/03/15 13:13:10;;;;;;;4.95;1.60;;;;;;;;;;6089359;23;20046;-81
2023/03/15 13:16:24;;;;;;;5.18;1.95;;;;;;;;;;6088398;23;20042;-80
2023/03/15 13:18:53;;;;;;;3.08;1.40;;;;;;;;;;6011932;23;20056;-80
2023/03/15 13:21:38;;;;;;;5.22;2.20;;;;;;;;;;6040518;23;20027;-80
2023/03/15 13:24:15;;;;;;;3.45;1.77;;;;;;;;;;6064629;23;20465;-80
2023/03/15 13:26:51;;;;;;;4.22;1.67;;;;;;;;;;6064366;23;20037;-80
2023/03/15 13:29:26;;;;;;;3.40;1.63;;;;;;;;;;6063950;23;20033;-79
2023/03/15 13:32:17;;;;;;;3.70;1.65;;;;;;;;;;6063115;23;20023;-80
2023/03/15 13:34:45;;;;;;;3.67;1.60;;;;;;;;;;6062709;23;20493;-80
2023/03/15 13:37:20;;;;;;;3.50;1.23;;;;;;;;;;6064684;23;20030;-81
2023/03/15 13:40:04;;;;;;;2.92;1.77;;;;;;;;;;6064643;23;20066;-82
2023/03/15 13:42:31;;;;;;;3.08;1.10;;;;;;;;;;6066728;23;20129;-80
2023/03/15 13:45:16;;;;;;;3.95;1.23;;;;;;;;;;6064601;23;20034;-81
2023/03/15 13:47:44;;;;;;;2.80;1.40;;;;;;;;;;6065356;23;20366;-80
2023/03/15 13:50:17;;;;;;;3.05;1.23;;;;;;;;;;6062716;23;20023;-75
2023/03/15 13:52:43;;;;;;;3.03;1.20;;;;;;;;;;6064480;23;20023;-81
2023/03/15 13:55:15;;;;;;;5.85;1.20;;;;;;;;;;6065915;23;20023;-80
2023/03/15 13:57:42;;;;;;;2.17;1.17;;;;;;;;;;6065653;23;20477;-81
2023/03/15 14:00:12;;;;;;;3.28;1.40;;;;;;;;;;6065241;23;20030;-80
2023/03/15 14:02:42;;;;;;;5.57;1.60;;;;;;;;;;6065314;23;20033;-81
2023/03/15 14:05:16;;;;;;;3.13;1.42;;;;;;;;;;6088816;23;20381;-80
2023/03/15 14:08:03;;;;;;;3.63;1.30;;;;;;;;;;6068915;23;20066;-80
2023/03/15 14:10:35;;;;;;;5.35;2.55;;;;;;;;;;6042715;23;20019;-80
2023/03/15 14:13:28;;;;;;;5.30;3.40;;;;;;;;;;6072346;23;20069;-80
2023/03/15 14:15:57;;;;;;;4.53;1.88;;;;;;;;;;6092712;23;20058;-80
2023/03/15 14:18:27;;;;;;;3.05;1.60;;;;;;;;;;6076713;23;20027;-80
2023/03/15 14:21:16;;;;;;;3.63;1.73;;;;;;;;;;6070977;23;20054;-80
2023/03/15 14:23:44;;;;;;;3.63;1.30;;;;;;;;;;6065954;23;20093;-80
2023/03/15 14:26:31;;;;;;;5.40;2.05;;;;;;;;;;6069521;23;20033;-80
2023/03/15 14:29:04;;;;;;;2.03;1.00;;;;;;;;;;6039763;23;20414;-80
2023/03/15 14:31:38;;;;;;;2.88;1.30;;;;;;;;;;6061699;23;20014;-74
2023/03/15 14:34:18;;;;;;;1.98;1.50;;;;;;;;;;6061853;23;20027;-79
2023/03/15 14:36:47;;;;;;;2.67;1.10;;;;;;;;;;6059236;23;20054;-81
2023/03/15 14:39:36;;;;;;;2.67;1.20;;;;;;;;;;6061174;23;20027;-80
2023/03/15 14:42:03;;;;;;;2.50;1.10;;;;;;;;;;6058859;23;20021;-80
2023/03/15 14:44:30;;;;;;;1.50;0.60;;;;;;;;;;6063074;23;20069;-79
2023/03/15 14:46:57;;;;;;;2.28;0.90;;;;;;;;;;6039055;23;20030;-82
2023/03/15 14:49:26;;;;;;;2.63;0.93;;;;;;;;;;6062168;23;20026;-79
2023/03/15 14:52:02;;;;;;;3.08;0.90;;;;;;;;;;6062467;23;20433;-79
2023/03/15 14:54:29;;;;;;;3.08;1.42;;;;;;;;;;6061905;23;20027;-79
2023/03/15 14:56:56;;;;;;;2.00;0.73;;;;;;;;;;6063124;23;20022;-79
2023/03/15 14:59:23;;;;;;;2.47;1.38;;;;;;;;;;6062312;23;20078;-79